Time;durP1;ratioP1;P1;durP2;ratioP2;P2;SDS_P1;SDS_P2;PMS_P1;PMS_P2;Temp;Humidity;BMP_temperature;BMP_pressure;BME280_temperature;BME280_humidity;BME280_pressure;Samples;Min_cycle;Max_cycle;Signal;HPM_P1;HPM_P2
2023/04/22 00:02:13;;;;;;;3.80;3.50;;;21.60;68.50;;;;;;5048121;28;20219;-62
2023/04/22 00:04:41;;;;;;;2.95;2.75;;;21.60;68.50;;;;;;5051402;28;20195;-61
2023/04/22 00:07:07;;;;;;;3.60;3.30;;;21.60;68.40;;;;;;5043703;28;20197;-61
2023/04/22 00:09:34;;;;;;;3.13;2.83;;;21.50;68.40;;;;;;5066133;28;20203;-62
2023/04/22 00:12:02;;;;;;;3.38;3.08;;;21.50;68.40;;;;;;5050692;28;20199;-62
2023/04/22 00:14:29;;;;;;;3.60;3.30;;;21.50;68.40;;;;;;5051558;28;20696;-62
2023/04/22 00:16:56;;;;;;;3.72;3.42;;;21.50;68.40;;;;;;5056462;28;20286;-62
2023/04/22 00:19:23;;;;;;;3.67;3.10;;;21.50;68.50;;;;;;5056714;28;21303;-61
2023/04/22 00:21:50;;;;;;;3.83;3.42;;;21.50;68.50;;;;;;5050148;28;20277;-62
2023/04/22 00:24:16;;;;;;;3.25;2.95;;;21.50;68.40;;;;;;5052357;28;20203;-61
2023/04/22 00:26:43;;;;;;;3.38;3.08;;;21.50;68.50;;;;;;5049900;28;20202;-60
2023/04/22 00:29:11;;;;;;;3.92;3.13;;;21.50;68.50;;;;;;5047839;28;20256;-61
2023/04/22 00:31:38;;;;;;;3.50;3.20;;;21.40;68.40;;;;;;5049866;28;20595;-61
2023/04/22 00:34:05;;;;;;;3.58;3.28;;;21.40;68.50;;;;;;5053838;28;20196;-61
2023/04/22 00:36:31;;;;;;;3.17;2.80;;;21.40;68.40;;;;;;5056020;28;20198;-63
2023/04/22 00:38:58;;;;;;;3.35;3.00;;;21.40;68.50;;;;;;5050085;28;20199;-63
2023/04/22 00:41:25;;;;;;;3.15;2.85;;;21.40;68.40;;;;;;5053930;28;20268;-63
2023/04/22 00:43:52;;;;;;;4.10;3.70;;;21.40;68.50;;;;;;5055390;28;20253;-63
2023/04/22 00:46:20;;;;;;;3.10;2.90;;;21.40;68.60;;;;;;5047653;28;20281;-62
2023/04/22 00:48:48;;;;;;;3.00;2.72;;;21.30;68.40;;;;;;5048573;28;20257;-62
2023/04/22 00:51:14;;;;;;;3.70;3.40;;;21.40;68.50;;;;;;5049839;28;20613;-62
2023/04/22 00:53:41;;;;;;;3.40;3.10;;;21.40;68.60;;;;;;5053830;28;20795;-63
2023/04/22 00:56:08;;;;;;;4.28;3.35;;;21.30;68.50;;;;;;5048605;28;20720;-62
2023/04/22 00:58:35;;;;;;;3.20;2.80;;;21.30;68.50;;;;;;5050459;28;20199;-62
2023/04/22 01:01:02;;;;;;;3.65;3.35;;;21.30;68.50;;;;;;5049358;28;20265;-63
2023/04/22 01:03:32;;;;;;;3.42;3.13;;;21.30;68.50;;;;;;5052855;28;20203;-63
2023/04/22 01:05:59;;;;;;;3.28;2.97;;;21.30;68.50;;;;;;5043088;28;20200;-62
2023/04/22 01:08:28;;;;;;;3.00;2.80;;;21.30;68.50;;;;;;5052577;28;20195;-63
2023/04/22 01:10:56;;;;;;;2.67;2.47;;;21.30;68.50;;;;;;5042822;28;20213;-62
2023/04/22 01:13:23;;;;;;;3.65;3.33;;;21.30;68.60;;;;;;5043039;28;20767;-62
2023/04/22 01:15:50;;;;;;;3.10;2.90;;;21.20;68.40;;;;;;5048654;28;20203;-62
2023/04/22 01:18:18;;;;;;;3.70;3.30;;;21.20;68.50;;;;;;5054172;28;20202;-62
2023/04/22 01:20:46;;;;;;;4.18;3.80;;;21.20;68.50;;;;;;5046293;28;20223;-62
2023/04/22 01:23:18;;;;;;;2.72;2.53;;;21.20;68.50;;;;;;5048449;28;20223;-62
2023/04/22 01:25:46;;;;;;;3.00;2.72;;;21.20;68.50;;;;;;5049326;28;20248;-63
2023/04/22 01:28:13;;;;;;;2.88;2.67;;;21.20;68.50;;;;;;5059128;28;20211;-62
2023/04/22 01:30:40;;;;;;;4.10;3.30;;;21.20;68.50;;;;;;5057780;28;20255;-63
2023/04/22 01:33:07;;;;;;;3.42;3.10;;;21.20;68.50;;;;;;5061436;28;20214;-63
2023/04/22 01:35:35;;;;;;;3.00;2.70;;;21.20;68.60;;;;;;5059310;28;20249;-62
2023/04/22 01:38:02;;;;;;;3.70;3.33;;;21.20;68.50;;;;;;5051584;28;20203;-62
2023/04/22 01:40:31;;;;;;;4.30;3.15;;;21.20;68.60;;;;;;5062610;28;20194;-63
2023/04/22 01:42:59;;;;;;;3.95;3.15;;;21.10;68.40;;;;;;5055671;28;20261;-63
2023/04/22 01:45:26;;;;;;;4.20;3.67;;;21.10;68.50;;;;;;5052330;28;20290;-62
2023/04/22 01:47:53;;;;;;;2.70;2.50;;;21.10;68.50;;;;;;5058927;28;20207;-62
2023/04/22 01:50:21;;;;;;;3.55;3.25;;;21.10;68.60;;;;;;5055551;28;20195;-62
2023/04/22 01:52:48;;;;;;;2.85;2.60;;;21.10;68.70;;;;;;5059941;28;20268;-62
2023/04/22 01:55:15;;;;;;;3.22;2.88;;;21.10;68.50;;;;;;5060306;28;20647;-62
2023/04/22 01:57:44;;;;;;;3.20;2.90;;;21.10;68.60;;;;;;5044494;28;20592;-63
2023/04/22 02:00:11;;;;;;;3.40;2.85;;;21.10;68.60;;;;;;5048113;28;20222;-62
2023/04/22 02:02:38;;;;;;;3.10;2.80;;;21.10;68.70;;;;;;5054583;28;20681;-62
2023/04/22 02:05:06;;;;;;;3.53;3.22;;;21.10;68.60;;;;;;5046269;28;20625;-62
2023/04/22 02:07:33;;;;;;;2.60;2.40;;;21.10;68.60;;;;;;5046379;28;20195;-63
2023/04/22 02:10:00;;;;;;;2.92;2.65;;;21.00;69.30;;;;;;5047693;28;20197;-62
2023/04/22 02:12:27;;;;;;;2.45;2.22;;;21.00;68.50;;;;;;5055435;28;20935;-62
2023/04/22 02:14:55;;;;;;;2.60;2.40;;;21.00;68.50;;;;;;5042987;28;20196;-62
2023/04/22 02:17:22;;;;;;;2.40;2.20;;;21.00;68.60;;;;;;5060529;28;20255;-62
2023/04/22 02:19:48;;;;;;;3.53;3.22;;;21.00;68.50;;;;;;5049716;28;20195;-62
2023/04/22 02:22:16;;;;;;;3.42;2.95;;;21.00;68.60;;;;;;5051223;28;20781;-63
2023/04/22 02:24:43;;;;;;;3.58;2.60;;;21.00;68.50;;;;;;5048993;28;20626;-63
2023/04/22 02:27:09;;;;;;;3.30;2.30;;;21.00;69.40;;;;;;5042081;28;20196;-63
2023/04/22 02:29:36;;;;;;;3.42;2.70;;;21.00;68.70;;;;;;5043564;28;20198;-62
2023/04/22 02:32:04;;;;;;;3.47;2.95;;;21.00;68.60;;;;;;5050550;28;20204;-63
2023/04/22 02:34:31;;;;;;;3.70;3.30;;;21.00;68.60;;;;;;5051143;28;20210;-63
2023/04/22 02:36:57;;;;;;;3.30;3.00;;;21.00;68.50;;;;;;5052689;28;20211;-62
2023/04/22 02:39:25;;;;;;;3.35;3.05;;;20.90;68.50;;;;;;5049189;28;20210;-62
2023/04/22 02:41:52;;;;;;;2.47;2.28;;;21.00;68.70;;;;;;5046416;28;20210;-62
2023/04/22 02:44:18;;;;;;;2.58;2.38;;;21.00;68.70;;;;;;5044007;28;20200;-62
2023/04/22 02:46:45;;;;;;;3.35;2.65;;;20.90;68.60;;;;;;5049574;28;20203;-62
2023/04/22 02:49:13;;;;;;;3.50;3.20;;;20.90;68.50;;;;;;5045258;28;20226;-62
2023/04/22 02:51:40;;;;;;;3.25;2.95;;;20.90;68.50;;;;;;5046869;28;20210;-62
2023/04/22 02:54:06;;;;;;;2.40;2.20;;;20.90;68.70;;;;;;5057894;28;20188;-62
2023/04/22 02:56:33;;;;;;;3.67;2.80;;;20.90;68.70;;;;;;5044026;28;20200;-62
2023/04/22 02:59:00;;;;;;;3.13;2.83;;;20.90;68.60;;;;;;5054236;28;20238;-62
2023/04/22 03:01:26;;;;;;;3.17;2.58;;;20.90;68.60;;;;;;5044452;28;20211;-62
2023/04/22 03:03:53;;;;;;;2.90;2.60;;;20.90;68.60;;;;;;5044081;28;20284;-62
2023/04/22 03:06:21;;;;;;;3.55;2.53;;;20.90;68.70;;;;;;5054436;28;20191;-62
2023/04/22 03:08:48;;;;;;;2.88;2.67;;;20.90;68.70;;;;;;5044954;28;20191;-63
2023/04/22 03:11:14;;;;;;;3.40;3.10;;;20.90;68.60;;;;;;5048214;28;20203;-62
2023/04/22 03:13:41;;;;;;;3.08;2.78;;;20.90;68.60;;;;;;5045569;28;20200;-62
2023/04/22 03:16:08;;;;;;;3.10;2.90;;;20.90;68.70;;;;;;5050668;28;20709;-62
2023/04/22 03:18:34;;;;;;;3.33;3.03;;;20.90;68.70;;;;;;5054901;28;20206;-63
2023/04/22 03:21:01;;;;;;;3.30;3.00;;;20.80;68.60;;;;;;5050220;28;20240;-62
2023/04/22 03:23:29;;;;;;;3.35;3.05;;;20.80;68.70;;;;;;5049681;28;20219;-62
2023/04/22 03:25:56;;;;;;;3.15;2.88;;;20.80;68.60;;;;;;5056197;28;20199;-62
2023/04/22 03:28:22;;;;;;;2.72;2.45;;;20.80;68.50;;;;;;5057208;28;20199;-62
2023/04/22 03:30:49;;;;;;;2.47;2.28;;;20.80;68.70;;;;;;5062186;28;20199;-62
2023/04/22 03:33:16;;;;;;;3.50;3.20;;;20.80;68.70;;;;;;5052922;28;20230;-62
2023/04/22 03:35:42;;;;;;;2.75;2.55;;;20.80;68.60;;;;;;5055890;28;20206;-62
2023/04/22 03:38:09;;;;;;;2.95;2.47;;;20.80;68.60;;;;;;5055725;28;20195;-62
2023/04/22 03:40:37;;;;;;;2.88;2.45;;;20.80;68.60;;;;;;5048617;28;20199;-62
2023/04/22 03:43:04;;;;;;;2.78;2.58;;;20.80;68.60;;;;;;5057854;28;20741;-62
2023/04/22 03:45:30;;;;;;;2.65;2.45;;;20.80;68.60;;;;;;5051057;28;20191;-62
2023/04/22 03:47:57;;;;;;;2.85;2.55;;;20.80;68.60;;;;;;5057310;28;20668;-62
2023/04/22 03:50:24;;;;;;;2.78;2.58;;;20.70;68.60;;;;;;5050708;28;20261;-62
2023/04/22 03:52:51;;;;;;;2.75;2.42;;;20.80;68.70;;;;;;5066844;28;20199;-62
2023/04/22 03:55:17;;;;;;;2.78;2.58;;;20.80;68.70;;;;;;5049513;28;20207;-62
2023/04/22 03:57:45;;;;;;;2.88;2.60;;;20.70;68.70;;;;;;5064561;28;20202;-62
2023/04/22 04:00:13;;;;;;;3.08;2.78;;;20.70;68.60;;;;;;5052170;28;20229;-63
2023/04/22 04:02:40;;;;;;;2.58;2.38;;;20.70;68.60;;;;;;5046962;28;20227;-62
2023/04/22 04:05:08;;;;;;;3.08;2.78;;;20.70;68.60;;;;;;5051622;28;20200;-62
2023/04/22 04:07:34;;;;;;;2.75;2.53;;;20.70;68.50;;;;;;5049551;28;20198;-62
2023/04/22 04:10:01;;;;;;;2.80;2.60;;;20.70;68.60;;;;;;5052107;28;20200;-62
2023/04/22 04:12:28;;;;;;;2.67;2.47;;;20.70;68.50;;;;;;5046713;28;20207;-62
2023/04/22 04:14:56;;;;;;;2.40;2.20;;;20.70;68.60;;;;;;5045372;28;20207;-62
2023/04/22 04:17:24;;;;;;;2.97;2.78;;;20.70;68.60;;;;;;5051399;28;20218;-63
2023/04/22 04:19:51;;;;;;;2.38;2.17;;;20.70;69.30;;;;;;5060196;28;20222;-63
2023/04/22 04:22:18;;;;;;;2.55;2.35;;;20.70;68.60;;;;;;5051288;28;20223;-63
2023/04/22 04:24:46;;;;;;;2.55;2.35;;;20.70;68.70;;;;;;5056172;28;20202;-63
2023/04/22 04:27:12;;;;;;;2.58;2.38;;;20.60;68.50;;;;;;5059487;28;20281;-62
2023/04/22 04:29:40;;;;;;;3.10;2.85;;;20.70;68.50;;;;;;5047860;28;20605;-62
2023/04/22 04:32:08;;;;;;;2.70;2.50;;;20.60;68.40;;;;;;5056232;28;20613;-62
2023/04/22 04:34:36;;;;;;;3.10;2.90;;;20.60;68.50;;;;;;5060512;28;20191;-62
2023/04/22 04:37:03;;;;;;;2.65;2.30;;;20.70;68.60;;;;;;5053603;28;20254;-62
2023/04/22 04:39:29;;;;;;;2.83;2.63;;;20.70;68.60;;;;;;5060091;28;20195;-62
2023/04/22 04:41:57;;;;;;;2.92;2.72;;;20.60;68.50;;;;;;5061534;28;20223;-62
2023/04/22 04:44:25;;;;;;;2.50;2.30;;;20.70;68.70;;;;;;5054936;28;20217;-62
2023/04/22 04:46:53;;;;;;;2.97;2.78;;;20.70;68.60;;;;;;5046112;28;20260;-62
2023/04/22 04:49:21;;;;;;;2.70;2.50;;;20.70;68.60;;;;;;5049779;28;20187;-63
2023/04/22 04:51:48;;;;;;;2.70;2.50;;;20.60;68.60;;;;;;5050713;28;20249;-62
2023/04/22 04:54:15;;;;;;;2.45;2.25;;;20.60;68.50;;;;;;5058258;28;20203;-62
2023/04/22 04:56:42;;;;;;;2.92;2.72;;;20.60;68.50;;;;;;5048168;28;20215;-62
2023/04/22 04:59:09;;;;;;;2.60;2.40;;;20.60;68.40;;;;;;5059156;28;20190;-62
2023/04/22 05:01:35;;;;;;;2.65;2.45;;;20.60;68.40;;;;;;5045956;28;20203;-62
2023/04/22 05:04:02;;;;;;;4.10;3.00;;;20.60;68.50;;;;;;5046985;28;20195;-62
2023/04/22 05:06:31;;;;;;;2.70;2.50;;;20.60;68.50;;;;;;5056445;28;20245;-62
2023/04/22 05:08:58;;;;;;;2.83;2.63;;;20.60;68.40;;;;;;5054746;28;20199;-62
2023/04/22 05:11:25;;;;;;;2.70;2.50;;;20.60;68.40;;;;;;5045727;28;20199;-62
2023/04/22 05:13:51;;;;;;;2.20;2.10;;;20.60;68.50;;;;;;5048590;28;20705;-62
2023/04/22 05:16:18;;;;;;;3.20;2.90;;;20.60;68.50;;;;;;5055545;28;20457;-63
2023/04/22 05:18:45;;;;;;;3.05;2.75;;;20.60;68.50;;;;;;5046855;28;20199;-62
2023/04/22 05:21:11;;;;;;;2.92;2.72;;;20.60;68.50;;;;;;5048249;28;20192;-62
2023/04/22 05:23:39;;;;;;;3.00;2.70;;;20.60;68.50;;;;;;5045935;28;20230;-62
2023/04/22 05:26:06;;;;;;;2.50;2.30;;;20.60;68.40;;;;;;5056712;28;20192;-63
2023/04/22 05:28:33;;;;;;;2.97;2.75;;;20.60;68.50;;;;;;5065690;28;20224;-63
2023/04/22 05:30:59;;;;;;;2.45;2.25;;;20.70;68.80;;;;;;5049117;28;20658;-62
2023/04/22 05:33:26;;;;;;;3.15;2.20;;;20.70;68.90;;;;;;5054094;28;20667;-63
2023/04/22 05:35:53;;;;;;;3.70;2.60;;;20.70;68.80;;;;;;5060518;28;20660;-63
2023/04/22 05:38:19;;;;;;;2.40;2.20;;;20.80;68.80;;;;;;5057087;28;20199;-63
2023/04/22 05:40:47;;;;;;;2.40;2.20;;;20.80;68.80;;;;;;5051257;28;20685;-63
2023/04/22 05:43:14;;;;;;;2.80;2.55;;;20.80;68.80;;;;;;5066599;28;20288;-62
2023/04/22 05:45:41;;;;;;;2.22;2.03;;;20.80;68.80;;;;;;5052815;28;20248;-63
2023/04/22 05:48:08;;;;;;;2.50;2.30;;;20.80;68.70;;;;;;5059169;28;20260;-63
2023/04/22 05:50:34;;;;;;;3.28;2.42;;;20.80;68.70;;;;;;5055408;28;20203;-63
2023/04/22 05:53:01;;;;;;;2.60;2.40;;;20.80;68.80;;;;;;5050956;28;20622;-63
2023/04/22 05:55:28;;;;;;;2.20;2.00;;;20.80;68.70;;;;;;5048422;28;20265;-63
2023/04/22 05:57:56;;;;;;;2.45;1.95;;;20.80;68.70;;;;;;5049648;28;20200;-62
2023/04/22 06:00:22;;;;;;;2.15;2.00;;;20.80;68.70;;;;;;5052049;28;20206;-62
2023/04/22 06:02:49;;;;;;;2.13;2.03;;;20.90;68.80;;;;;;5054461;28;20223;-62
2023/04/22 06:05:16;;;;;;;2.85;2.63;;;20.80;68.70;;;;;;5049718;28;20207;-62
2023/04/22 06:07:42;;;;;;;2.30;2.10;;;20.80;68.70;;;;;;5051578;28;20208;-62
2023/04/22 06:10:10;;;;;;;2.67;2.22;;;20.80;68.80;;;;;;5053942;28;20226;-62
2023/04/22 06:12:36;;;;;;;2.30;2.10;;;20.90;68.80;;;;;;5051757;28;20202;-62
2023/04/22 06:15:05;;;;;;;2.60;2.40;;;20.90;68.80;;;;;;5052174;28;20768;-62
2023/04/22 06:17:32;;;;;;;2.78;2.58;;;20.90;68.70;;;;;;5056420;28;20203;-62
2023/04/22 06:19:59;;;;;;;2.30;2.10;;;21.00;68.80;;;;;;5048972;28;20199;-63
2023/04/22 06:22:25;;;;;;;2.30;2.10;;;20.90;68.70;;;;;;5049566;28;20219;-63
2023/04/22 06:24:52;;;;;;;2.00;1.80;;;21.00;68.70;;;;;;5046774;28;20195;-62
2023/04/22 06:27:19;;;;;;;2.15;1.95;;;21.00;68.80;;;;;;5050161;28;20203;-63
2023/04/22 06:29:45;;;;;;;2.80;2.60;;;21.00;68.70;;;;;;5047672;28;20199;-62
2023/04/22 06:32:13;;;;;;;2.00;1.80;;;21.00;68.80;;;;;;5058363;28;20218;-62
2023/04/22 06:34:40;;;;;;;2.50;2.30;;;21.00;68.70;;;;;;5051236;28;20257;-63
2023/04/22 06:37:07;;;;;;;2.67;2.47;;;21.00;68.70;;;;;;5050269;28;20256;-63
2023/04/22 06:39:34;;;;;;;2.30;2.10;;;21.10;68.90;;;;;;5051540;28;20268;-63
2023/04/22 06:42:01;;;;;;;2.42;2.22;;;21.10;68.90;;;;;;5063701;28;20191;-62
2023/04/22 06:44:28;;;;;;;2.53;2.33;;;21.10;68.90;;;;;;5056202;28;20718;-63
2023/04/22 06:46:55;;;;;;;2.35;2.15;;;21.10;68.80;;;;;;5052612;28;20586;-62
2023/04/22 06:49:23;;;;;;;2.30;2.10;;;21.10;68.80;;;;;;5056480;28;20318;-63
2023/04/22 06:51:50;;;;;;;2.60;2.40;;;21.20;68.90;;;;;;5050475;28;20196;-62
2023/04/22 06:54:17;;;;;;;1.70;1.60;;;21.20;68.80;;;;;;5055206;28;20294;-62
2023/04/22 06:56:43;;;;;;;2.20;2.00;;;21.20;68.70;;;;;;5050371;28;20253;-63
2023/04/22 06:59:10;;;;;;;2.25;2.05;;;21.20;68.70;;;;;;5045216;28;20218;-63
2023/04/22 07:01:37;;;;;;;2.30;2.10;;;21.20;68.70;;;;;;5048355;28;20218;-62
2023/04/22 07:04:03;;;;;;;2.22;2.05;;;21.20;68.70;;;;;;5051963;28;20219;-63
2023/04/22 07:06:31;;;;;;;1.70;1.60;;;21.20;68.60;;;;;;5057987;28;20199;-63
2023/04/22 07:08:58;;;;;;;2.20;2.03;;;21.20;68.60;;;;;;5052300;28;20206;-63
2023/04/22 07:11:26;;;;;;;4.55;1.80;;;21.20;68.70;;;;;;5056886;28;20199;-63
2023/04/22 07:13:53;;;;;;;2.80;2.47;;;21.20;68.90;;;;;;5053871;28;20195;-62
2023/04/22 07:16:19;;;;;;;2.17;1.80;;;21.20;68.80;;;;;;5047459;28;20207;-62
2023/04/22 07:18:46;;;;;;;2.50;2.30;;;21.30;68.90;;;;;;5053541;28;20207;-62
2023/04/22 07:21:13;;;;;;;2.25;2.05;;;21.20;68.80;;;;;;5053015;28;20199;-62
2023/04/22 07:23:41;;;;;;;2.42;2.22;;;21.30;69.00;;;;;;5060760;28;20227;-62
2023/04/22 07:26:07;;;;;;;3.28;3.03;;;21.30;69.00;;;;;;5058502;28;20584;-62
2023/04/22 07:28:34;;;;;;;3.92;3.55;;;21.30;69.80;;;;;;5053962;28;20659;-62
2023/04/22 07:31:02;;;;;;;3.75;3.45;;;21.20;69.30;;;;;;5057218;28;20559;-62
2023/04/22 07:33:29;;;;;;;3.40;3.10;;;21.20;69.30;;;;;;5056130;28;20211;-62
2023/04/22 07:35:56;;;;;;;2.53;2.33;;;21.20;69.40;;;;;;5050833;28;20199;-62
2023/04/22 07:38:22;;;;;;;3.20;2.80;;;21.20;69.40;;;;;;5052258;28;20726;-62
2023/04/22 07:40:50;;;;;;;3.03;2.83;;;21.30;69.50;;;;;;5059215;28;20199;-62
2023/04/22 07:43:17;;;;;;;2.60;2.40;;;21.30;69.50;;;;;;5053431;28;20219;-63
2023/04/22 07:45:44;;;;;;;3.15;2.53;;;21.30;69.40;;;;;;5052165;28;20198;-62
2023/04/22 07:48:11;;;;;;;2.63;2.38;;;21.30;69.30;;;;;;5061383;28;20199;-62
2023/04/22 07:50:38;;;;;;;2.72;2.53;;;21.30;70.10;;;;;;5053983;28;20221;-61
2023/04/22 07:53:04;;;;;;;2.20;2.00;;;21.40;69.40;;;;;;5058544;28;20202;-63
2023/04/22 07:55:31;;;;;;;2.72;2.53;;;21.40;69.50;;;;;;5057448;28;20609;-63
2023/04/22 07:58:02;;;;;;;2.95;2.65;;;21.40;69.50;;;;;;5051136;28;20213;-62
2023/04/22 08:00:29;;;;;;;3.08;2.88;;;21.40;69.40;;;;;;5054578;28;20211;-62
2023/04/22 08:02:56;;;;;;;2.97;2.63;;;21.40;69.40;;;;;;5058275;28;20223;-63
2023/04/22 08:05:22;;;;;;;2.50;2.30;;;21.50;69.60;;;;;;5055487;28;20196;-62
2023/04/22 08:07:49;;;;;;;2.97;2.78;;;21.50;70.30;;;;;;5057873;28;20285;-62
2023/04/22 08:10:15;;;;;;;2.50;2.13;;;21.40;69.70;;;;;;5049948;28;20203;-61
2023/04/22 08:12:42;;;;;;;2.30;2.10;;;21.50;69.90;;;;;;5053150;28;20199;-63
2023/04/22 08:15:11;;;;;;;2.90;2.65;;;21.50;69.80;;;;;;5053110;28;20200;-61
2023/04/22 08:17:37;;;;;;;3.88;2.70;;;21.50;69.80;;;;;;5059660;28;20277;-61
2023/04/22 08:20:05;;;;;;;2.58;2.38;;;21.50;69.80;;;;;;5060773;28;20195;-62
2023/04/22 08:22:32;;;;;;;3.47;2.30;;;21.50;69.80;;;;;;5057655;28;20309;-60
2023/04/22 08:24:59;;;;;;;3.08;2.60;;;21.50;69.80;;;;;;5051606;28;20227;-62
2023/04/22 08:27:26;;;;;;;6.35;2.15;;;21.50;69.60;;;;;;5050385;28;20249;-61
2023/04/22 08:29:52;;;;;;;2.38;2.17;;;21.60;70.30;;;;;;5043665;28;20732;-61
2023/04/22 08:32:22;;;;;;;2.42;2.22;;;21.60;70.00;;;;;;5048954;28;20629;-60
2023/04/22 08:34:48;;;;;;;4.63;1.92;;;21.60;69.90;;;;;;5051794;28;20192;-60
2023/04/22 08:37:15;;;;;;;2.30;1.95;;;21.60;69.90;;;;;;5052859;28;20253;-60
2023/04/22 08:39:42;;;;;;;3.78;2.00;;;21.60;69.80;;;;;;5049399;28;20194;-61
2023/04/22 08:42:09;;;;;;;3.45;2.08;;;21.60;69.80;;;;;;5053350;28;20199;-61
2023/04/22 08:44:37;;;;;;;2.00;1.85;;;21.60;69.60;;;;;;5046372;28;20967;-61
2023/04/22 08:47:04;;;;;;;2.27;2.00;;;21.60;69.60;;;;;;5060031;28;20285;-62
2023/04/22 08:49:35;;;;;;;2.40;2.20;;;21.60;69.60;;;;;;5053226;28;20865;-62
2023/04/22 08:52:02;;;;;;;2.30;1.90;;;21.70;69.60;;;;;;5050328;28;20195;-61
2023/04/22 08:54:29;;;;;;;2.10;1.93;;;21.60;69.50;;;;;;5052258;28;20621;-62
2023/04/22 08:56:56;;;;;;;2.47;2.28;;;21.70;69.60;;;;;;5054496;28;20818;-62
2023/04/22 08:59:23;;;;;;;2.13;2.00;;;21.70;69.50;;;;;;5051944;28;20234;-62
2023/04/22 09:01:53;;;;;;;3.17;2.38;;;21.70;69.60;;;;;;5048331;28;20203;-62
2023/04/22 09:04:20;;;;;;;3.67;2.30;;;21.70;69.70;;;;;;5048219;28;20222;-62
2023/04/22 09:06:48;;;;;;;2.10;1.90;;;21.70;69.60;;;;;;5047407;28;20203;-62
2023/04/22 09:09:14;;;;;;;2.95;2.08;;;21.70;69.60;;;;;;5053458;28;20207;-62
2023/04/22 09:11:41;;;;;;;2.20;2.00;;;21.70;69.70;;;;;;5054074;28;20249;-62
2023/04/22 09:14:08;;;;;;;2.25;2.03;;;21.70;69.60;;;;;;5058560;28;20261;-62
2023/04/22 09:16:40;;;;;;;2.20;2.00;;;21.70;69.60;;;;;;5050364;28;20203;-62
2023/04/22 09:19:11;;;;;;;2.70;2.27;;;21.70;69.60;;;;;;5058188;28;20286;-62
2023/04/22 09:21:39;;;;;;;3.40;2.30;;;21.70;69.50;;;;;;5060134;28;20501;-62
2023/04/22 09:24:08;;;;;;;2.40;2.20;;;21.70;69.60;;;;;;5060842;28;20277;-62
2023/04/22 09:26:39;;;;;;;2.27;2.07;;;21.70;69.40;;;;;;5050888;28;20500;-61
2023/04/22 09:29:08;;;;;;;2.50;2.30;;;21.70;69.60;;;;;;5049304;28;20549;-62
2023/04/22 09:31:36;;;;;;;2.50;2.30;;;21.70;69.80;;;;;;5048466;28;20188;-62
2023/04/22 09:34:04;;;;;;;2.67;2.47;;;21.70;70.50;;;;;;5056988;28;20231;-62
2023/04/22 09:36:32;;;;;;;3.75;2.08;;;21.70;70.20;;;;;;5053210;28;20208;-62
2023/04/22 09:39:02;;;;;;;5.00;2.22;;;21.70;70.20;;;;;;5064412;28;20191;-62
2023/04/22 09:41:32;;;;;;;2.60;2.40;;;21.70;70.20;;;;;;5054405;28;20685;-62
2023/04/22 09:43:59;;;;;;;3.78;2.28;;;21.60;70.00;;;;;;5051609;28;20211;-62
2023/04/22 09:46:28;;;;;;;3.27;3.00;;;21.60;70.00;;;;;;5054792;28;20268;-62
2023/04/22 09:48:55;;;;;;;3.08;1.75;;;21.60;69.90;;;;;;5053953;28;20479;-62
2023/04/22 09:51:23;;;;;;;2.38;2.17;;;21.60;69.90;;;;;;5049929;28;20246;-62
2023/04/22 09:54:03;;;;;;;1.88;1.73;;;21.60;69.90;;;;;;5063637;28;20206;-62
2023/04/22 09:56:47;;;;;;;3.47;1.92;;;21.70;70.00;;;;;;5052721;28;20230;-62
2023/04/22 09:59:14;;;;;;;1.83;1.58;;;21.70;69.90;;;;;;5051931;28;20705;-62
2023/04/22 10:01:42;;;;;;;2.22;1.60;;;21.70;69.90;;;;;;5055482;28;20571;-61
2023/04/22 10:04:10;;;;;;;1.90;1.80;;;21.70;70.00;;;;;;5049145;28;20233;-61
2023/04/22 10:06:36;;;;;;;2.67;1.98;;;21.70;70.70;;;;;;5057459;28;20537;-64
2023/04/22 10:09:03;;;;;;;4.45;2.00;;;21.80;70.10;;;;;;5058539;28;20202;-64
2023/04/22 10:11:31;;;;;;;1.80;1.70;;;21.80;70.10;;;;;;5057522;28;20249;-65
2023/04/22 10:14:00;;;;;;;2.10;1.88;;;21.80;70.10;;;;;;5054495;28;20207;-65
2023/04/22 10:16:28;;;;;;;3.05;1.60;;;21.90;70.30;;;;;;5049678;28;20191;-61
2023/04/22 10:18:56;;;;;;;2.05;1.85;;;21.90;70.30;;;;;;5055526;28;20195;-70
2023/04/22 10:21:25;;;;;;;2.30;2.00;;;21.90;70.20;;;;;;5059478;28;20282;-59
2023/04/22 10:23:52;;;;;;;2.60;1.80;;;21.90;70.30;;;;;;5052297;28;21233;-54
2023/04/22 10:26:52;;;;;;;2.20;1.90;;;21.90;70.30;;;;;;5056884;28;21167;-57
2023/04/22 10:29:21;;;;;;;2.00;1.80;;;22.00;70.40;;;;;;5041946;28;20458;-58
2023/04/22 10:31:55;;;;;;;1.43;1.33;;;22.00;70.30;;;;;;5064435;28;20457;-58
2023/04/22 10:34:22;;;;;;;3.80;1.52;;;22.00;70.30;;;;;;5053109;28;20462;-65
2023/04/22 10:36:53;;;;;;;2.33;1.47;;;22.00;70.30;;;;;;5052757;28;20198;-65
2023/04/22 10:39:21;;;;;;;2.70;2.07;;;22.10;70.30;;;;;;5057320;28;20461;-61
2023/04/22 10:41:52;;;;;;;1.77;1.67;;;22.00;70.30;;;;;;5064836;28;20483;-62
2023/04/22 10:44:21;;;;;;;2.23;1.60;;;22.10;70.40;;;;;;5049258;28;20481;-62
2023/04/22 10:46:59;;;;;;;3.47;1.70;;;22.10;70.30;;;;;;5060361;28;20534;-61
2023/04/22 10:49:28;;;;;;;1.70;1.60;;;22.10;70.40;;;;;;5058104;28;20546;-61
2023/04/22 10:51:57;;;;;;;1.43;1.33;;;22.10;70.20;;;;;;5052174;28;20458;-59
2023/04/22 10:54:55;;;;;;;2.10;1.90;;;22.20;70.30;;;;;;5060413;28;20472;-58
2023/04/22 10:57:22;;;;;;;3.13;1.73;;;22.20;70.30;;;;;;5045130;28;20564;-61
2023/04/22 10:59:53;;;;;;;1.67;1.57;;;22.20;70.30;;;;;;5053410;28;20791;-63
2023/04/22 11:02:21;;;;;;;4.17;1.63;;;22.20;70.40;;;;;;5058802;28;20458;-64
2023/04/22 11:04:49;;;;;;;2.83;1.40;;;22.20;70.40;;;;;;5056291;28;20848;-67
2023/04/22 11:07:30;;;;;;;1.60;1.50;;;22.20;70.30;;;;;;5057663;28;20949;-66
2023/04/22 11:10:00;;;;;;;1.50;1.40;;;22.20;70.30;;;;;;5053895;28;20519;-63
2023/04/22 11:12:49;;;;;;;1.90;1.80;;;22.30;70.40;;;;;;5057313;28;20454;-63
2023/04/22 11:15:19;;;;;;;1.87;1.47;;;22.30;70.50;;;;;;5047365;28;20458;-61
2023/04/22 11:17:47;;;;;;;1.47;1.37;;;22.30;70.40;;;;;;5059091;28;20524;-63
2023/04/22 11:20:16;;;;;;;1.83;1.73;;;22.30;70.40;;;;;;5057487;28;20462;-66
2023/04/22 11:22:44;;;;;;;1.50;1.40;;;22.30;70.40;;;;;;5054572;28;20473;-63
2023/04/22 11:25:11;;;;;;;1.60;1.50;;;22.30;70.20;;;;;;5054158;28;20485;-62
2023/04/22 11:27:38;;;;;;;5.00;1.93;;;22.40;70.40;;;;;;5056003;28;20453;-64
2023/04/22 11:30:07;;;;;;;2.17;1.67;;;22.40;71.20;;;;;;5050834;28;20536;-66
2023/04/22 11:32:36;;;;;;;1.97;1.87;;;22.40;70.50;;;;;;5053898;28;20960;-65
2023/04/22 11:35:05;;;;;;;1.40;1.30;;;22.40;70.40;;;;;;5057641;28;21018;-64
2023/04/22 11:37:39;;;;;;;1.47;1.37;;;22.40;70.40;;;;;;5056350;28;20457;-64
2023/04/22 11:40:07;;;;;;;1.83;1.73;;;22.40;70.40;;;;;;5051120;28;21117;-64
2023/04/22 11:42:35;;;;;;;1.77;1.53;;;22.50;70.40;;;;;;5055404;28;20467;-64
2023/04/22 11:45:01;;;;;;;2.10;1.43;;;22.50;70.40;;;;;;5055896;28;20526;-64
2023/04/22 11:47:30;;;;;;;1.23;1.13;;;22.50;70.30;;;;;;5055510;28;20453;-62
2023/04/22 11:50:00;;;;;;;1.60;1.50;;;22.50;70.20;;;;;;5060508;28;20462;-64
2023/04/22 11:52:45;;;;;;;1.50;1.37;;;22.50;70.10;;;;;;5063417;28;20968;-60
2023/04/22 11:55:12;;;;;;;1.70;1.53;;;22.60;70.40;;;;;;5063354;28;20559;-59
2023/04/22 11:57:39;;;;;;;1.60;1.50;;;22.60;70.40;;;;;;5065183;28;20484;-57
2023/04/22 12:00:08;;;;;;;1.30;1.20;;;22.60;70.50;;;;;;5057840;28;20454;-58
2023/04/22 12:02:35;;;;;;;1.53;1.43;;;22.60;70.40;;;;;;5058024;28;20531;-63
2023/04/22 12:05:03;;;;;;;1.70;1.50;;;22.60;70.30;;;;;;5057922;28;20576;-62
2023/04/22 12:07:32;;;;;;;1.47;1.37;;;22.70;70.50;;;;;;5055789;28;20469;-64
2023/04/22 12:10:00;;;;;;;1.47;1.37;;;22.70;70.40;;;;;;5066531;28;20550;-63
2023/04/22 12:12:27;;;;;;;1.87;1.23;;;22.70;71.00;;;;;;5062718;28;20879;-64
2023/04/22 12:14:56;;;;;;;1.70;1.60;;;22.70;70.10;;;;;;5061215;28;20461;-59
2023/04/22 12:17:24;;;;;;;1.27;1.17;;;22.70;70.00;;;;;;5066746;28;20488;-62
2023/04/22 12:19:54;;;;;;;2.60;1.17;;;22.70;70.00;;;;;;5060938;28;20545;-57
2023/04/22 12:22:26;;;;;;;1.83;1.73;;;22.70;70.00;;;;;;5062258;28;20477;-63
2023/04/22 12:24:53;;;;;;;1.50;1.40;;;22.70;70.00;;;;;;5060631;28;20499;-58
2023/04/22 12:27:20;;;;;;;1.77;1.60;;;22.80;70.00;;;;;;5062812;28;20522;-62
2023/04/22 12:29:51;;;;;;;1.60;1.50;;;22.80;70.00;;;;;;5059315;28;20465;-59
2023/04/22 12:32:18;;;;;;;1.50;1.40;;;22.80;70.00;;;;;;5060367;28;20462;-58
2023/04/22 12:34:45;;;;;;;1.50;1.40;;;22.80;70.00;;;;;;5059236;28;20461;-59
2023/04/22 12:37:12;;;;;;;1.47;1.37;;;22.80;69.90;;;;;;5061860;28;20957;-60
2023/04/22 12:39:40;;;;;;;2.17;1.67;;;22.80;70.00;;;;;;5048603;28;22003;-63
2023/04/22 12:42:07;;;;;;;1.30;1.20;;;22.80;69.90;;;;;;5054279;28;20453;-64
2023/04/22 12:44:34;;;;;;;1.47;1.30;;;22.80;69.90;;;;;;5052034;28;20482;-65
2023/04/22 12:47:00;;;;;;;1.40;1.30;;;22.90;70.10;;;;;;5052945;28;20453;-64
2023/04/22 12:49:27;;;;;;;1.70;1.60;;;22.90;70.10;;;;;;5055155;28;20485;-67
2023/04/22 12:51:54;;;;;;;2.10;1.80;;;22.90;70.10;;;;;;5050908;28;20532;-61